Time;durP1;ratioP1;P1;durP2;ratioP2;P2;SDS_P1;SDS_P2;PMS_P1;PMS_P2;Temp;Humidity;BMP_temperature;BMP_pressure;BME280_temperature;BME280_humidity;BME280_pressure;Samples;Min_cycle;Max_cycle;Signal;HPM_P1;HPM_P2
2022/03/03 00:01:48;;;;;;;4.63;3.30;;;23.40;30.30;;;;;;5062154;28;20032;-47
2022/03/03 00:04:14;;;;;;;5.18;3.22;;;23.40;30.20;;;;;;5064349;28;20021;-46
2022/03/03 00:06:39;;;;;;;4.63;3.15;;;23.30;30.30;;;;;;5060400;28;20730;-47
2022/03/03 00:09:05;;;;;;;5.68;3.30;;;23.30;30.30;;;;;;5043663;28;20037;-47
2022/03/03 00:11:32;;;;;;;5.22;3.55;;;23.30;30.30;;;;;;5054566;28;20095;-49
2022/03/03 00:13:58;;;;;;;4.50;3.28;;;23.30;30.20;;;;;;5064145;28;20029;-47
2022/03/03 00:16:27;;;;;;;5.47;3.60;;;23.30;30.20;;;;;;5062844;28;20365;-48
2022/03/03 00:18:52;;;;;;;4.82;3.17;;;23.30;30.20;;;;;;5063245;28;20032;-47
2022/03/03 00:21:18;;;;;;;4.95;3.20;;;23.30;30.20;;;;;;5063672;28;20025;-47
2022/03/03 00:23:44;;;;;;;5.20;3.60;;;23.30;30.20;;;;;;5043632;28;20021;-47
2022/03/03 00:26:10;;;;;;;4.03;2.80;;;23.30;30.20;;;;;;5047178;28;20021;-47
2022/03/03 00:28:36;;;;;;;5.25;3.35;;;23.20;30.10;;;;;;5047106;28;20018;-47
2022/03/03 00:31:03;;;;;;;5.57;3.40;;;23.20;30.10;;;;;;5047293;28;20476;-47
2022/03/03 00:33:29;;;;;;;4.97;3.33;;;23.20;30.10;;;;;;5047661;28;20033;-47
2022/03/03 00:35:55;;;;;;;5.60;4.00;;;23.20;30.10;;;;;;5047987;28;20060;-47
2022/03/03 00:38:20;;;;;;;5.13;3.53;;;23.20;30.10;;;;;;5047978;28;20059;-47
2022/03/03 00:40:46;;;;;;;6.03;3.20;;;23.10;30.10;;;;;;5052886;28;20020;-47
2022/03/03 00:43:12;;;;;;;4.60;3.15;;;23.20;30.10;;;;;;5067687;28;20033;-47
2022/03/03 00:45:38;;;;;;;5.05;3.83;;;23.20;30.10;;;;;;5067590;28;20016;-47
2022/03/03 00:48:05;;;;;;;4.90;3.53;;;23.10;30.10;;;;;;5067292;28;20028;-46
2022/03/03 00:50:31;;;;;;;4.70;3.10;;;23.10;30.10;;;;;;5066987;28;20046;-47
2022/03/03 00:52:57;;;;;;;5.32;3.60;;;23.10;30.10;;;;;;5054324;28;20456;-47
2022/03/03 00:55:23;;;;;;;5.30;3.75;;;23.10;30.10;;;;;;5047512;28;20033;-47
2022/03/03 00:57:49;;;;;;;5.43;4.00;;;23.10;30.00;;;;;;5047754;28;20041;-49
2022/03/03 01:00:15;;;;;;;5.10;3.53;;;23.00;29.90;;;;;;5047329;28;20039;-47
2022/03/03 01:02:41;;;;;;;6.57;3.88;;;23.00;30.00;;;;;;5046654;28;20046;-47
2022/03/03 01:05:08;;;;;;;4.80;3.20;;;23.00;29.90;;;;;;5046742;28;20062;-47
2022/03/03 01:07:34;;;;;;;5.10;3.42;;;23.00;29.90;;;;;;5046283;28;20078;-46
2022/03/03 01:10:00;;;;;;;5.07;3.80;;;23.00;29.90;;;;;;5047414;28;20021;-46
2022/03/03 01:12:25;;;;;;;5.32;3.55;;;23.00;29.90;;;;;;5065546;28;20033;-47
2022/03/03 01:14:51;;;;;;;5.00;3.50;;;23.00;29.90;;;;;;5067346;28;20032;-49
2022/03/03 01:17:17;;;;;;;4.95;3.95;;;23.00;29.80;;;;;;5066671;28;20021;-46
2022/03/03 01:19:43;;;;;;;5.68;3.90;;;23.00;29.80;;;;;;5066550;28;20031;-46
2022/03/03 01:22:09;;;;;;;4.70;3.58;;;23.00;29.80;;;;;;5066369;28;20031;-46
2022/03/03 01:24:35;;;;;;;5.60;3.58;;;22.90;29.90;;;;;;5066548;28;20032;-47
2022/03/03 01:27:01;;;;;;;5.65;3.40;;;22.90;29.90;;;;;;5067254;28;20021;-47
2022/03/03 01:29:26;;;;;;;5.13;3.40;;;22.90;29.90;;;;;;5065626;28;20017;-47
2022/03/03 01:31:53;;;;;;;5.45;3.70;;;22.90;29.90;;;;;;5066344;28;20036;-47
2022/03/03 01:34:19;;;;;;;5.00;3.65;;;22.90;29.90;;;;;;5065338;28;20064;-47
2022/03/03 01:36:44;;;;;;;5.70;4.05;;;22.90;29.90;;;;;;5064039;28;20079;-46
2022/03/03 01:39:10;;;;;;;5.10;3.60;;;22.90;29.90;;;;;;5046466;28;20029;-46
2022/03/03 01:41:37;;;;;;;5.05;3.72;;;22.80;29.80;;;;;;5063541;28;20427;-47
2022/03/03 01:44:03;;;;;;;5.22;3.67;;;22.80;29.80;;;;;;5066456;28;20419;-46
2022/03/03 01:46:30;;;;;;;5.70;4.05;;;22.80;29.80;;;;;;5066292;28;20024;-46
2022/03/03 01:48:56;;;;;;;5.65;4.07;;;22.80;29.80;;;;;;5066669;28;20031;-47
2022/03/03 01:51:22;;;;;;;4.72;3.42;;;22.80;29.80;;;;;;5065660;28;20029;-47
2022/03/03 01:53:47;;;;;;;5.22;3.80;;;22.80;29.80;;;;;;5047246;28;20512;-46
2022/03/03 01:56:13;;;;;;;5.35;3.58;;;22.80;29.80;;;;;;5046724;28;20542;-47
2022/03/03 01:58:40;;;;;;;4.75;3.40;;;22.80;29.70;;;;;;5046179;28;20031;-46
2022/03/03 02:01:06;;;;;;;4.75;3.50;;;22.80;29.70;;;;;;5045758;28;20045;-47
2022/03/03 02:03:32;;;;;;;4.60;3.25;;;22.80;29.70;;;;;;5044743;28;20088;-46
2022/03/03 02:05:58;;;;;;;5.78;4.00;;;22.80;29.70;;;;;;5046963;28;20104;-47
2022/03/03 02:08:24;;;;;;;5.63;4.00;;;22.80;29.70;;;;;;5061673;28;20027;-46
2022/03/03 02:10:54;;;;;;;5.00;3.65;;;22.80;29.70;;;;;;5066096;28;20033;-47
2022/03/03 02:13:19;;;;;;;4.90;3.88;;;22.70;29.80;;;;;;5065860;28;20496;-46
2022/03/03 02:15:53;;;;;;;5.05;3.75;;;22.70;29.80;;;;;;5065908;28;20029;-47
2022/03/03 02:18:19;;;;;;;4.72;3.17;;;22.70;29.80;;;;;;5065865;28;20082;-47
2022/03/03 02:20:44;;;;;;;5.38;3.65;;;22.70;29.80;;;;;;5065229;28;20025;-46
2022/03/03 02:23:10;;;;;;;5.35;3.97;;;22.70;29.80;;;;;;5065551;28;20040;-47
2022/03/03 02:25:36;;;;;;;4.70;3.50;;;22.70;29.80;;;;;;5065905;28;20765;-47
2022/03/03 02:28:02;;;;;;;5.18;3.65;;;22.70;29.80;;;;;;5065520;28;20028;-46
2022/03/03 02:30:28;;;;;;;4.90;3.53;;;22.70;29.80;;;;;;5063795;28;20048;-47
2022/03/03 02:32:54;;;;;;;5.97;4.00;;;22.60;29.70;;;;;;5065598;28;20443;-46
2022/03/03 02:35:20;;;;;;;5.00;3.70;;;22.60;29.70;;;;;;5065689;28;20036;-46
2022/03/03 02:37:46;;;;;;;5.20;3.80;;;22.60;29.70;;;;;;5063942;28;20064;-47
2022/03/03 02:40:20;;;;;;;4.78;3.55;;;22.60;29.70;;;;;;5065387;28;20032;-47
2022/03/03 02:42:51;;;;;;;5.20;3.95;;;22.60;29.70;;;;;;5064992;28;20035;-46
2022/03/03 02:45:17;;;;;;;5.82;4.00;;;22.60;29.70;;;;;;5065950;28;20020;-47
2022/03/03 02:47:47;;;;;;;5.65;4.32;;;22.60;29.70;;;;;;5064633;28;20055;-47
2022/03/03 02:50:15;;;;;;;5.13;3.80;;;22.60;29.60;;;;;;5064784;28;20100;-47
2022/03/03 02:52:41;;;;;;;5.53;4.13;;;22.60;29.60;;;;;;5064626;28;20113;-46
2022/03/03 02:55:07;;;;;;;6.13;4.28;;;22.60;30.30;;;;;;5064862;28;20605;-47
2022/03/03 03:00:17;;;;;;;5.38;4.00;;;22.50;29.70;;;;;;5064971;28;20031;-47
2022/03/03 03:02:43;;;;;;;4.88;3.50;;;22.50;29.60;;;;;;5064418;28;20095;-47
2022/03/03 03:05:10;;;;;;;5.72;4.05;;;22.50;29.70;;;;;;5065267;28;20017;-47
2022/03/03 03:07:36;;;;;;;5.53;4.20;;;22.50;29.70;;;;;;5057328;28;20041;-47
2022/03/03 03:10:03;;;;;;;5.13;3.70;;;22.50;29.70;;;;;;5045184;28;20032;-46
2022/03/03 03:12:29;;;;;;;5.72;4.00;;;22.50;29.70;;;;;;5063897;28;20067;-47
2022/03/03 03:14:54;;;;;;;5.07;3.83;;;22.40;29.60;;;;;;5063936;28;20056;-47
2022/03/03 03:17:20;;;;;;;5.15;4.03;;;22.50;29.70;;;;;;5064462;28;20020;-47
2022/03/03 03:19:47;;;;;;;5.13;3.80;;;22.40;29.60;;;;;;5065220;28;20028;-46
2022/03/03 03:22:13;;;;;;;5.28;3.95;;;22.40;29.70;;;;;;5060353;28;20124;-47
2022/03/03 03:24:38;;;;;;;5.47;4.20;;;22.40;29.60;;;;;;5044816;28;20113;-46
2022/03/03 03:27:04;;;;;;;5.65;4.55;;;22.40;29.60;;;;;;5044571;28;20032;-47
2022/03/03 03:29:30;;;;;;;5.57;3.83;;;22.40;29.60;;;;;;5044970;28;20874;-47
2022/03/03 03:31:56;;;;;;;5.03;3.80;;;22.40;29.60;;;;;;5043938;28;20060;-46
2022/03/03 03:34:22;;;;;;;5.38;4.07;;;22.40;29.60;;;;;;5044397;28;20044;-47
2022/03/03 03:36:48;;;;;;;5.50;4.05;;;22.40;29.60;;;;;;5044633;28;20079;-47
2022/03/03 03:39:14;;;;;;;5.50;4.20;;;22.40;29.60;;;;;;5044332;28;20041;-47
2022/03/03 03:41:40;;;;;;;5.22;3.90;;;22.30;29.60;;;;;;5056285;28;20426;-47
2022/03/03 03:44:06;;;;;;;5.35;4.20;;;22.40;29.70;;;;;;5063632;28;20025;-46
2022/03/03 03:46:31;;;;;;;5.32;4.13;;;22.30;29.60;;;;;;5063979;28;20025;-46
2022/03/03 03:48:57;;;;;;;5.53;4.15;;;22.30;29.60;;;;;;5064195;28;20036;-46
2022/03/03 03:51:23;;;;;;;5.25;4.07;;;22.30;29.60;;;;;;5063917;28;20032;-46
2022/03/03 03:53:49;;;;;;;5.43;4.22;;;22.30;29.70;;;;;;5047680;28;20036;-46
2022/03/03 03:56:14;;;;;;;5.50;4.43;;;22.30;29.70;;;;;;5043048;28;20124;-46
2022/03/03 03:58:40;;;;;;;6.75;5.00;;;22.30;29.70;;;;;;5043794;28;20090;-46
2022/03/03 04:01:06;;;;;;;5.47;4.32;;;22.30;29.70;;;;;;5042885;28;20071;-47
2022/03/03 04:03:31;;;;;;;6.35;4.63;;;22.30;29.70;;;;;;5044188;28;20028;-46
2022/03/03 04:05:57;;;;;;;5.20;4.00;;;22.30;29.70;;;;;;5044465;28;20029;-47
2022/03/03 04:08:23;;;;;;;5.95;4.47;;;22.30;29.70;;;;;;5043691;28;20033;-46
2022/03/03 04:10:49;;;;;;;6.28;4.32;;;22.30;29.70;;;;;;5052399;28;20484;-46
2022/03/03 04:13:17;;;;;;;6.00;4.63;;;22.30;29.70;;;;;;5062347;28;20031;-46
2022/03/03 04:15:43;;;;;;;5.55;4.45;;;22.30;29.70;;;;;;5064530;28;20096;-46
2022/03/03 04:18:10;;;;;;;5.25;4.05;;;22.30;29.70;;;;;;5063598;28;20111;-46
2022/03/03 04:20:36;;;;;;;5.60;4.25;;;22.20;29.60;;;;;;5063747;28;20052;-46
2022/03/03 04:23:02;;;;;;;5.93;4.38;;;22.30;29.70;;;;;;5053860;28;20040;-46
2022/03/03 04:25:28;;;;;;;5.60;4.60;;;22.20;29.70;;;;;;5025275;28;20036;-46
2022/03/03 04:27:54;;;;;;;5.90;4.57;;;22.20;29.70;;;;;;5043632;28;20032;-46
2022/03/03 04:30:19;;;;;;;5.20;4.20;;;22.20;29.70;;;;;;5041954;28;20025;-47
2022/03/03 04:32:45;;;;;;;5.72;4.40;;;22.20;29.70;;;;;;5042547;28;20063;-47
2022/03/03 04:35:11;;;;;;;6.07;4.28;;;22.20;29.70;;;;;;5043310;28;20107;-46
2022/03/03 04:37:38;;;;;;;5.57;4.43;;;22.20;29.70;;;;;;5043072;28;20551;-47
2022/03/03 04:40:04;;;;;;;6.47;5.20;;;22.20;29.70;;;;;;5042199;28;20024;-46
2022/03/03 04:42:30;;;;;;;6.65;5.07;;;22.20;29.70;;;;;;5062805;28;20032;-46
2022/03/03 04:44:56;;;;;;;6.00;4.47;;;22.20;29.70;;;;;;5064152;28;20025;-48
2022/03/03 04:47:22;;;;;;;5.38;4.20;;;22.20;29.70;;;;;;5063614;28;20703;-46
2022/03/03 04:49:47;;;;;;;6.43;4.82;;;22.10;29.70;;;;;;5063019;28;20017;-46
2022/03/03 04:52:13;;;;;;;5.38;4.20;;;22.10;29.70;;;;;;5063381;28;20055;-46
2022/03/03 04:54:39;;;;;;;5.50;4.63;;;22.10;29.70;;;;;;5063937;28;20103;-46
2022/03/03 04:57:05;;;;;;;5.70;4.63;;;22.10;29.70;;;;;;5063792;28;20032;-45
2022/03/03 04:59:31;;;;;;;7.35;5.40;;;22.10;29.70;;;;;;5063433;28;20081;-46
2022/03/03 05:01:56;;;;;;;6.65;4.93;;;22.10;29.70;;;;;;5063556;28;20115;-46
2022/03/03 05:04:22;;;;;;;6.72;5.53;;;22.10;29.70;;;;;;5062198;28;20104;-47
2022/03/03 05:06:49;;;;;;;5.97;4.35;;;22.10;29.70;;;;;;5063940;28;20025;-46
2022/03/03 05:09:15;;;;;;;5.80;4.50;;;22.10;29.70;;;;;;5044388;28;20138;-47
2022/03/03 05:11:41;;;;;;;5.95;5.00;;;22.10;29.70;;;;;;5058402;28;20734;-46
2022/03/03 05:14:08;;;;;;;5.80;4.57;;;22.10;29.70;;;;;;5067390;28;20028;-46
2022/03/03 05:16:34;;;;;;;6.38;5.32;;;22.10;29.80;;;;;;5067220;28;20021;-47
2022/03/03 05:18:59;;;;;;;6.05;4.60;;;22.00;29.80;;;;;;5065810;28;20033;-46
2022/03/03 05:21:25;;;;;;;6.90;4.93;;;22.10;30.50;;;;;;5066356;28;20562;-47
2022/03/03 05:23:51;;;;;;;6.45;5.15;;;22.00;29.80;;;;;;5051170;28;20025;-46
2022/03/03 05:26:18;;;;;;;5.50;4.18;;;22.10;29.90;;;;;;5046930;28;20029;-46
2022/03/03 05:28:44;;;;;;;6.35;5.00;;;22.10;30.00;;;;;;5046928;28;20032;-47
2022/03/03 05:31:10;;;;;;;6.80;5.35;;;22.10;30.00;;;;;;5046469;28;20025;-46
2022/03/03 05:33:36;;;;;;;6.88;5.32;;;22.10;30.10;;;;;;5046279;28;20179;-46
2022/03/03 05:36:07;;;;;;;6.78;5.20;;;22.10;30.10;;;;;;5046634;28;20116;-46
2022/03/03 05:38:34;;;;;;;6.35;4.90;;;22.20;30.10;;;;;;5045894;28;20037;-47
2022/03/03 05:41:01;;;;;;;6.38;5.15;;;22.20;30.10;;;;;;5052850;28;20125;-46
2022/03/03 05:43:28;;;;;;;6.00;4.60;;;22.30;30.10;;;;;;5065765;28;20056;-46
2022/03/03 05:45:54;;;;;;;5.85;4.55;;;22.40;30.10;;;;;;5065991;28;20073;-47
2022/03/03 05:48:22;;;;;;;5.68;4.50;;;22.40;30.10;;;;;;5064682;28;20020;-46
2022/03/03 05:50:49;;;;;;;6.22;4.85;;;22.50;30.10;;;;;;5065606;28;20472;-46
2022/03/03 05:53:16;;;;;;;6.10;4.95;;;22.60;30.00;;;;;;5054856;28;20037;-46
2022/03/03 05:55:49;;;;;;;6.07;4.80;;;22.60;29.90;;;;;;5045840;28;20575;-46
2022/03/03 05:58:17;;;;;;;6.22;4.93;;;22.70;29.80;;;;;;5045132;28;20025;-47
2022/03/03 06:00:48;;;;;;;6.32;4.68;;;22.80;29.70;;;;;;5045094;28;20035;-46
2022/03/03 06:03:16;;;;;;;6.53;4.32;;;22.80;29.70;;;;;;5062266;28;20020;-46
2022/03/03 06:05:52;;;;;;;5.88;4.80;;;22.90;29.60;;;;;;5062385;28;20028;-46
2022/03/03 06:08:31;;;;;;;5.05;4.05;;;23.00;29.60;;;;;;5061408;28;20033;-46
2022/03/03 06:11:16;;;;;;;5.85;4.63;;;23.10;29.80;;;;;;5062740;28;20033;-47
2022/03/03 06:13:47;;;;;;;7.00;5.00;;;23.20;30.30;;;;;;5061826;28;20499;-46
2022/03/03 06:16:18;;;;;;;6.05;4.70;;;23.30;30.40;;;;;;5063923;28;20033;-46
2022/03/03 06:18:46;;;;;;;6.85;5.55;;;23.30;30.70;;;;;;5064094;28;20024;-46
2022/03/03 06:21:12;;;;;;;5.22;4.43;;;23.40;30.80;;;;;;5063151;28;20032;-46
2022/03/03 06:23:38;;;;;;;7.63;5.50;;;23.50;30.70;;;;;;5061022;28;20043;-46
2022/03/03 06:26:10;;;;;;;6.50;5.13;;;23.60;30.30;;;;;;5063832;28;20494;-47
2022/03/03 06:28:36;;;;;;;6.45;5.30;;;23.60;30.10;;;;;;5058595;28;20084;-46
2022/03/03 06:31:04;;;;;;;6.43;5.13;;;23.70;30.30;;;;;;5058977;28;20149;-47
2022/03/03 06:33:30;;;;;;;6.45;5.43;;;23.80;30.20;;;;;;5061266;28;20102;-47
2022/03/03 06:35:56;;;;;;;6.75;5.15;;;23.80;30.00;;;;;;5060536;28;20066;-46
2022/03/03 06:38:23;;;;;;;7.28;4.82;;;23.90;29.80;;;;;;5061715;28;20108;-47
2022/03/03 06:40:49;;;;;;;6.97;5.80;;;24.00;29.70;;;;;;5061828;28;20028;-47
2022/03/03 06:43:16;;;;;;;5.90;4.68;;;24.00;29.60;;;;;;5063555;28;20171;-46
2022/03/03 06:45:42;;;;;;;5.93;4.88;;;24.10;29.50;;;;;;5064199;28;20194;-46
2022/03/03 06:48:07;;;;;;;6.90;5.25;;;24.20;29.30;;;;;;5064020;28;20710;-46
2022/03/03 06:50:38;;;;;;;6.72;5.13;;;24.20;29.30;;;;;;5062721;28;20032;-47
2022/03/03 06:53:07;;;;;;;7.13;5.30;;;24.30;29.20;;;;;;5061395;28;20077;-46
2022/03/03 06:55:33;;;;;;;6.40;5.10;;;24.40;29.80;;;;;;5060172;28;20111;-47
2022/03/03 06:58:00;;;;;;;6.18;4.32;;;24.40;29.10;;;;;;5059740;28;20389;-46
2022/03/03 07:00:31;;;;;;;7.22;5.28;;;24.50;29.10;;;;;;5057911;28;20024;-47
2022/03/03 07:02:56;;;;;;;7.10;5.53;;;24.50;29.10;;;;;;5061428;28;20620;-47
2022/03/03 07:05:22;;;;;;;6.57;4.85;;;24.60;29.00;;;;;;5061655;28;20016;-46
2022/03/03 07:07:50;;;;;;;7.57;5.15;;;24.60;28.90;;;;;;5060312;28;20100;-46
2022/03/03 07:10:23;;;;;;;5.57;4.45;;;24.70;28.90;;;;;;5063016;28;20028;-46
2022/03/03 07:12:55;;;;;;;6.10;4.75;;;24.70;28.90;;;;;;5062674;28;20081;-46
2022/03/03 07:15:22;;;;;;;6.82;5.00;;;24.80;28.80;;;;;;5063495;28;20755;-47
2022/03/03 07:17:56;;;;;;;7.60;5.10;;;24.80;28.80;;;;;;5061344;28;20050;-46
2022/03/03 07:20:36;;;;;;;6.40;4.93;;;24.80;28.70;;;;;;5047379;28;20024;-46
2022/03/03 07:23:16;;;;;;;6.75;5.00;;;24.90;28.90;;;;;;5046369;28;20036;-47
2022/03/03 07:25:47;;;;;;;7.93;4.57;;;24.90;28.90;;;;;;5059125;28;20024;-47
2022/03/03 07:28:14;;;;;;;7.45;5.35;;;24.90;28.90;;;;;;5061419;28;20096;-46
2022/03/03 07:30:42;;;;;;;6.38;4.85;;;24.90;28.80;;;;;;5062029;28;20082;-47
2022/03/03 07:33:11;;;;;;;7.30;4.63;;;25.00;28.80;;;;;;5061206;28;20031;-47
2022/03/03 07:35:40;;;;;;;8.20;5.55;;;25.00;28.80;;;;;;5062221;28;20028;-46
2022/03/03 07:38:19;;;;;;;6.90;4.78;;;25.00;28.50;;;;;;5062135;28;20029;-45
2022/03/03 07:40:47;;;;;;;7.65;5.15;;;25.00;28.90;;;;;;5062534;28;20089;-45
2022/03/03 07:43:14;;;;;;;6.70;4.20;;;25.00;28.80;;;;;;5061612;28;20024;-46
2022/03/03 07:45:41;;;;;;;8.63;4.93;;;25.00;28.80;;;;;;5063438;28;20656;-45
2022/03/03 07:48:06;;;;;;;6.15;4.78;;;25.10;28.60;;;;;;5063047;28;20470;-46
2022/03/03 07:50:34;;;;;;;6.70;5.13;;;25.10;28.60;;;;;;5063035;28;20017;-45
2022/03/03 07:53:00;;;;;;;6.82;4.72;;;25.10;28.50;;;;;;5058139;28;20028;-46
2022/03/03 07:55:27;;;;;;;7.07;4.68;;;25.20;28.30;;;;;;5044560;28;20622;-45
2022/03/03 07:58:02;;;;;;;6.88;5.03;;;25.20;28.40;;;;;;5043652;28;20021;-45
2022/03/03 08:00:30;;;;;;;6.28;4.70;;;25.20;28.30;;;;;;5043224;28;20031;-45
2022/03/03 08:03:01;;;;;;;5.78;4.45;;;25.20;28.30;;;;;;5044347;28;20045;-47
2022/03/03 08:05:31;;;;;;;6.20;4.97;;;25.20;28.20;;;;;;5043868;28;20112;-46
2022/03/03 08:08:00;;;;;;;7.47;5.22;;;25.20;28.10;;;;;;5047596;28;20024;-45
2022/03/03 08:10:27;;;;;;;6.43;4.70;;;25.20;28.10;;;;;;5063759;28;20553;-46
2022/03/03 08:12:58;;;;;;;6.70;4.82;;;25.30;28.10;;;;;;5063772;28;20476;-46
2022/03/03 08:15:25;;;;;;;5.32;4.28;;;25.30;28.10;;;;;;5064321;28;20034;-46
2022/03/03 08:17:52;;;;;;;7.68;5.05;;;25.30;28.10;;;;;;5063684;28;20060;-46
2022/03/03 08:20:19;;;;;;;6.47;4.55;;;25.30;28.10;;;;;;5063991;28;20384;-46
2022/03/03 08:22:46;;;;;;;5.20;4.15;;;25.30;28.00;;;;;;5061272;28;20021;-46
2022/03/03 08:25:14;;;;;;;5.60;4.50;;;25.30;28.00;;;;;;5043550;28;20104;-45
2022/03/03 08:27:41;;;;;;;6.20;4.72;;;25.30;28.00;;;;;;5044181;28;20033;-46
2022/03/03 08:30:09;;;;;;;6.95;4.35;;;25.40;28.00;;;;;;5043995;28;20026;-46
2022/03/03 08:32:39;;;;;;;6.38;4.50;;;25.40;28.00;;;;;;5044249;28;20039;-46
2022/03/03 08:35:12;;;;;;;5.72;4.50;;;25.40;28.00;;;;;;5054441;28;20032;-46
2022/03/03 08:37:42;;;;;;;7.07;5.07;;;25.40;27.90;;;;;;5062130;28;20119;-46
2022/03/03 08:40:12;;;;;;;6.32;4.75;;;25.40;27.90;;;;;;5043986;28;20060;-46
2022/03/03 08:42:45;;;;;;;5.68;4.32;;;25.40;27.90;;;;;;5043716;28;20025;-46
2022/03/03 08:45:11;;;;;;;6.90;4.70;;;25.40;27.80;;;;;;5042547;28;20087;-46
2022/03/03 08:47:39;;;;;;;5.75;4.50;;;25.40;27.80;;;;;;5047592;28;20372;-46
2022/03/03 08:50:19;;;;;;;6.40;4.40;;;25.40;27.80;;;;;;5051959;28;20024;-46
2022/03/03 08:52:44;;;;;;;6.03;4.20;;;25.40;27.80;;;;;;5080174;28;20596;-46
2022/03/03 08:55:12;;;;;;;5.70;4.30;;;25.40;27.80;;;;;;5047668;28;20029;-46
2022/03/03 08:57:39;;;;;;;5.45;4.43;;;25.40;27.80;;;;;;5047730;28;20546;-45
2022/03/03 09:00:08;;;;;;;5.78;4.57;;;25.50;27.70;;;;;;5047556;28;20032;-45
2022/03/03 09:02:33;;;;;;;6.45;4.60;;;25.50;27.70;;;;;;5047234;28;20581;-46
2022/03/03 09:04:59;;;;;;;5.78;4.60;;;25.50;27.70;;;;;;5047498;28;20107;-46
2022/03/03 09:07:25;;;;;;;5.45;4.03;;;25.40;27.60;;;;;;5066882;28;20491;-46
2022/03/03 09:09:51;;;;;;;5.63;4.20;;;25.40;27.60;;;;;;5047603;28;20037;-46
2022/03/03 09:12:16;;;;;;;5.65;3.97;;;25.50;27.60;;;;;;5062597;28;20086;-46
2022/03/03 09:14:42;;;;;;;5.65;4.13;;;25.50;27.60;;;;;;5067250;28;20467;-45
2022/03/03 09:17:08;;;;;;;5.90;4.82;;;25.40;27.60;;;;;;5067191;28;20036;-46
2022/03/03 09:19:33;;;;;;;6.25;4.63;;;25.50;27.60;;;;;;5067097;28;20107;-46
2022/03/03 09:21:59;;;;;;;5.68;4.22;;;25.50;27.60;;;;;;5066711;28;20063;-45
2022/03/03 09:24:25;;;;;;;5.20;3.85;;;25.50;27.60;;;;;;5051195;28;20044;-46
2022/03/03 09:26:54;;;;;;;5.32;3.92;;;25.50;27.60;;;;;;5047083;28;20074;-46
2022/03/03 09:29:20;;;;;;;5.72;4.00;;;25.50;27.60;;;;;;5046426;28;20021;-45
2022/03/03 09:31:46;;;;;;;6.57;4.43;;;25.50;27.50;;;;;;5046798;28;20029;-45
2022/03/03 09:34:12;;;;;;;6.43;4.50;;;25.50;27.60;;;;;;5046460;28;20037;-46
2022/03/03 09:36:38;;;;;;;6.57;4.75;;;25.50;27.60;;;;;;5045781;28;20052;-46
2022/03/03 09:39:04;;;;;;;5.93;4.72;;;25.50;27.50;;;;;;5046480;28;20066;-46
2022/03/03 09:41:30;;;;;;;5.18;3.97;;;25.50;27.50;;;;;;5046358;28;20552;-45
2022/03/03 09:43:57;;;;;;;4.65;3.67;;;25.50;27.60;;;;;;5046688;28;20107;-46
2022/03/03 09:46:24;;;;;;;5.20;3.90;;;25.50;27.50;;;;;;5047042;28;20307;-46
2022/03/03 09:48:50;;;;;;;5.70;4.05;;;25.50;27.50;;;;;;5046724;28;20021;-46
2022/03/03 09:51:16;;;;;;;5.53;4.32;;;25.60;27.50;;;;;;5060391;28;20040;-45
2022/03/03 09:53:42;;;;;;;5.72;4.38;;;25.50;27.50;;;;;;5056891;28;20112;-46
2022/03/03 09:56:08;;;;;;;5.30;4.00;;;25.60;27.50;;;;;;5060791;28;20250;-47
2022/03/03 09:58:34;;;;;;;5.10;4.07;;;25.60;27.50;;;;;;5065800;28;20029;-46
2022/03/03 10:01:00;;;;;;;5.55;3.88;;;25.50;27.50;;;;;;5065774;28;20035;-46
2022/03/03 10:03:32;;;;;;;5.32;3.70;;;25.60;27.60;;;;;;5066897;28;20031;-46
2022/03/03 10:06:00;;;;;;;6.43;4.63;;;25.50;27.50;;;;;;5066325;28;20028;-46
2022/03/03 10:08:27;;;;;;;5.53;4.38;;;25.60;27.40;;;;;;5059648;28;20740;-45
2022/03/03 10:11:02;;;;;;;4.95;3.83;;;25.60;27.40;;;;;;5050471;28;20029;-46
2022/03/03 10:13:47;;;;;;;5.25;3.72;;;25.60;27.50;;;;;;5066533;28;20404;-45
2022/03/03 10:16:29;;;;;;;5.35;3.65;;;25.60;27.60;;;;;;5066040;28;20059;-45
2022/03/03 10:19:05;;;;;;;5.30;4.05;;;25.60;27.50;;;;;;5066663;28;20101;-46
2022/03/03 10:21:33;;;;;;;5.68;3.78;;;25.60;27.50;;;;;;5065117;28;20078;-46
2022/03/03 10:24:01;;;;;;;5.57;4.32;;;25.60;27.40;;;;;;5054995;28;20108;-46
2022/03/03 10:26:38;;;;;;;5.00;4.00;;;25.60;27.40;;;;;;5045800;28;20550;-46
2022/03/03 10:29:18;;;;;;;5.57;4.20;;;25.60;27.40;;;;;;5046065;28;20025;-46
2022/03/03 10:31:52;;;;;;;5.40;4.38;;;25.60;27.50;;;;;;5045127;28;20064;-45
2022/03/03 10:34:20;;;;;;;5.43;4.18;;;25.60;27.40;;;;;;5045396;28;20037;-46
2022/03/03 10:37:18;;;;;;;5.63;4.22;;;25.60;27.40;;;;;;5045669;28;20068;-47
2022/03/03 10:39:48;;;;;;;5.38;3.90;;;25.60;27.40;;;;;;5062254;28;20048;-46
2022/03/03 10:42:19;;;;;;;5.70;3.97;;;25.60;27.40;;;;;;5064728;28;20031;-46
2022/03/03 10:44:46;;;;;;;5.55;4.00;;;25.60;27.40;;;;;;5065436;28;20021;-46
2022/03/03 10:47:17;;;;;;;4.82;3.90;;;25.50;27.40;;;;;;5065530;28;20032;-46
2022/03/03 10:49:48;;;;;;;5.18;4.00;;;25.60;27.50;;;;;;5065078;28;20023;-46
2022/03/03 10:52:19;;;;;;;5.53;4.00;;;25.60;27.40;;;;;;5065169;28;20476;-46
2022/03/03 10:54:51;;;;;;;5.20;4.00;;;25.60;27.50;;;;;;5063906;28;20044;-46
2022/03/03 10:57:46;;;;;;;5.28;3.60;;;25.60;27.40;;;;;;5065460;28;20040;-46
2022/03/03 11:00:24;;;;;;;5.95;3.60;;;25.60;27.50;;;;;;5064964;28;20028;-46
2022/03/03 11:02:53;;;;;;;4.75;3.55;;;25.60;27.40;;;;;;5064924;28;20032;-45
2022/03/03 11:05:20;;;;;;;5.20;3.70;;;25.60;27.40;;;;;;5064803;28;20104;-46
2022/03/03 11:07:48;;;;;;;5.55;4.05;;;25.60;27.50;;;;;;5064066;28;20086;-45
2022/03/03 11:10:19;;;;;;;4.97;3.53;;;25.60;27.50;;;;;;5044785;28;20512;-46
2022/03/03 11:12:45;;;;;;;5.20;3.80;;;25.60;27.50;;;;;;5044965;28;20033;-45
2022/03/03 11:15:13;;;;;;;4.95;3.65;;;25.60;27.40;;;;;;5044775;28;20392;-46
2022/03/03 11:17:39;;;;;;;4.80;3.75;;;25.60;27.50;;;;;;5044846;28;20024;-46
2022/03/03 11:20:07;;;;;;;4.70;3.40;;;25.60;27.50;;;;;;5049556;28;20021;-45
2022/03/03 11:22:33;;;;;;;4.63;3.38;;;25.60;27.40;;;;;;5064254;28;20450;-46
2022/03/03 11:25:02;;;;;;;5.70;3.85;;;25.60;27.50;;;;;;5046621;28;20026;-46
2022/03/03 11:27:36;;;;;;;6.57;4.13;;;25.60;27.40;;;;;;5044489;28;20544;-46
2022/03/03 11:30:28;;;;;;;5.70;4.00;;;25.60;27.40;;;;;;5044340;28;20029;-46
2022/03/03 11:33:21;;;;;;;5.32;3.92;;;25.60;27.50;;;;;;5043457;28;20066;-45
2022/03/03 11:35:48;;;;;;;4.40;3.25;;;25.60;27.50;;;;;;5064898;28;20071;-45
2022/03/03 11:38:15;;;;;;;5.72;3.97;;;25.60;27.50;;;;;;5060617;28;20506;-46
2022/03/03 11:40:52;;;;;;;6.13;4.00;;;25.60;27.40;;;;;;5044197;28;20040;-45
2022/03/03 11:43:18;;;;;;;5.38;3.90;;;25.60;27.40;;;;;;5044564;28;20017;-45
2022/03/03 11:45:58;;;;;;;5.75;4.18;;;25.60;27.40;;;;;;5044653;28;20557;-46
2022/03/03 11:48:35;;;;;;;5.70;3.95;;;25.70;27.40;;;;;;5044405;28;20029;-46
2022/03/03 11:51:32;;;;;;;5.07;3.53;;;25.70;27.40;;;;;;5056683;28;20683;-46
2022/03/03 11:54:10;;;;;;;4.55;3.40;;;25.70;27.40;;;;;;5055777;28;20438;-46
2022/03/03 11:57:06;;;;;;;5.20;3.65;;;25.70;27.40;;;;;;5044669;28;20037;-45
2022/03/03 11:59:35;;;;;;;6.53;3.90;;;25.70;27.40;;;;;;5043983;28;20032;-46
2022/03/03 12:02:01;;;;;;;5.65;3.83;;;25.70;27.40;;;;;;5044349;28;20048;-46
2022/03/03 12:04:27;;;;;;;5.25;3.47;;;25.70;27.40;;;;;;5043115;28;20543;-46
2022/03/03 12:06:54;;;;;;;6.35;4.30;;;25.70;27.40;;;;;;5044582;28;20113;-45
2022/03/03 12:09:20;;;;;;;5.50;4.00;;;25.70;27.30;;;;;;5044008;28;20025;-45
2022/03/03 12:11:46;;;;;;;4.93;3.50;;;25.70;27.40;;;;;;5055882;28;20571;-46
2022/03/03 12:14:29;;;;;;;6.32;3.90;;;25.80;27.30;;;;;;5064385;28;20493;-46
2022/03/03 12:17:33;;;;;;;6.03;4.25;;;25.70;27.30;;;;;;5064424;28;20063;-47
2022/03/03 12:20:23;;;;;;;5.30;3.85;;;25.70;27.30;;;;;;5066178;28;20033;-46
2022/03/03 12:23:01;;;;;;;5.70;3.75;;;25.80;27.30;;;;;;5068075;28;20103;-46
2022/03/03 12:25:51;;;;;;;5.63;3.85;;;25.80;27.90;;;;;;5048210;28;20029;-46
2022/03/03 12:28:43;;;;;;;4.82;3.55;;;25.80;27.30;;;;;;5048167;28;20025;-46
2022/03/03 12:31:26;;;;;;;5.55;3.80;;;25.80;27.30;;;;;;5047947;28;20028;-45
2022/03/03 12:34:06;;;;;;;6.22;3.47;;;25.80;27.40;;;;;;5047821;28;20508;-46
2022/03/03 12:36:34;;;;;;;5.82;4.07;;;25.80;27.70;;;;;;5047405;28;20060;-46
2022/03/03 12:39:00;;;;;;;5.78;4.00;;;25.80;27.30;;;;;;5047559;28;20029;-46
2022/03/03 12:41:27;;;;;;;6.45;4.05;;;25.80;27.40;;;;;;5047571;28;20194;-46
2022/03/03 12:44:05;;;;;;;5.28;3.67;;;25.80;27.20;;;;;;5046490;28;20222;-46
2022/03/03 12:46:32;;;;;;;5.55;3.72;;;25.80;27.10;;;;;;5048473;28;20253;-46
2022/03/03 12:49:01;;;;;;;6.63;4.00;;;25.80;27.10;;;;;;5046345;28;20025;-46
2022/03/03 12:51:27;;;;;;;5.60;3.67;;;25.80;27.10;;;;;;5063523;28;20089;-46
2022/03/03 12:53:54;;;;;;;5.95;4.00;;;25.80;27.10;;;;;;5066237;28;20032;-46
2022/03/03 12:56:26;;;;;;;4.80;3.40;;;25.70;27.00;;;;;;5067587;28;20031;-46
2022/03/03 12:58:53;;;;;;;5.20;4.05;;;25.80;27.80;;;;;;5067876;28;20191;-46